sensor_id;sensor_type;location;lat;lon;timestamp;temperature;humidity
43991;DHT22;29654;50.784;20.604;2022-12-18T00:03:15;2.20;59.60
43991;DHT22;29654;50.784;20.604;2022-12-18T00:08:20;2.20;59.50
43991;DHT22;29654;50.784;20.604;2022-12-18T00:13:25;2.20;59.50
43991;DHT22;29654;50.784;20.604;2022-12-18T00:18:28;2.20;59.40
43991;DHT22;29654;50.784;20.604;2022-12-18T00:23:31;2.30;59.50
43991;DHT22;29654;50.784;20.604;2022-12-18T00:28:36;2.30;59.50
43991;DHT22;29654;50.784;20.604;2022-12-18T00:33:39;2.30;59.30
43991;DHT22;29654;50.784;20.604;2022-12-18T00:38:45;2.30;59.30
43991;DHT22;29654;50.784;20.604;2022-12-18T00:43:50;2.30;59.30
43991;DHT22;29654;50.784;20.604;2022-12-18T00:48:52;2.20;59.30
43991;DHT22;29654;50.784;20.604;2022-12-18T00:53:55;2.20;59.30
43991;DHT22;29654;50.784;20.604;2022-12-18T00:58:59;2.20;59.30
43991;DHT22;29654;50.784;20.604;2022-12-18T01:04:03;2.30;59.40
43991;DHT22;29654;50.784;20.604;2022-12-18T01:09:07;2.30;59.30
43991;DHT22;29654;50.784;20.604;2022-12-18T01:14:12;2.30;59.30
43991;DHT22;29654;50.784;20.604;2022-12-18T01:19:15;2.40;59.20
43991;DHT22;29654;50.784;20.604;2022-12-18T01:24:18;2.40;59.10
43991;DHT22;29654;50.784;20.604;2022-12-18T01:29:22;2.40;59.00
43991;DHT22;29654;50.784;20.604;2022-12-18T01:34:25;2.40;58.90
43991;DHT22;29654;50.784;20.604;2022-12-18T01:39:27;2.40;58.80
43991;DHT22;29654;50.784;20.604;2022-12-18T01:45:02;2.40;58.90
43991;DHT22;29654;50.784;20.604;2022-12-18T01:50:09;2.40;58.80
43991;DHT22;29654;50.784;20.604;2022-12-18T01:55:14;2.40;58.80
43991;DHT22;29654;50.784;20.604;2022-12-18T02:00:23;2.50;58.80
43991;DHT22;29654;50.784;20.604;2022-12-18T02:05:35;2.50;58.80
43991;DHT22;29654;50.784;20.604;2022-12-18T02:10:47;2.60;58.70
43991;DHT22;29654;50.784;20.604;2022-12-18T02:16:02;2.70;58.70
43991;DHT22;29654;50.784;20.604;2022-12-18T02:21:15;2.70;58.60
43991;DHT22;29654;50.784;20.604;2022-12-18T02:26:29;2.70;58.60
43991;DHT22;29654;50.784;20.604;2022-12-18T02:31:39;2.80;58.60
43991;DHT22;29654;50.784;20.604;2022-12-18T02:36:45;2.80;58.60
43991;DHT22;29654;50.784;20.604;2022-12-18T02:41:51;2.80;58.50
43991;DHT22;29654;50.784;20.604;2022-12-18T02:46:56;2.90;58.50
43991;DHT22;29654;50.784;20.604;2022-12-18T02:52:05;2.90;58.50
43991;DHT22;29654;50.784;20.604;2022-12-18T02:57:16;2.90;58.40
43991;DHT22;29654;50.784;20.604;2022-12-18T03:02:26;2.90;58.30
43991;DHT22;29654;50.784;20.604;2022-12-18T03:07:37;2.90;58.30
43991;DHT22;29654;50.784;20.604;2022-12-18T03:12:50;2.90;58.30
43991;DHT22;29654;50.784;20.604;2022-12-18T03:17:57;2.90;58.40
43991;DHT22;29654;50.784;20.604;2022-12-18T03:23:09;2.90;58.40
43991;DHT22;29654;50.784;20.604;2022-12-18T03:28:16;2.90;58.50
43991;DHT22;29654;50.784;20.604;2022-12-18T03:33:28;2.80;58.50
43991;DHT22;29654;50.784;20.604;2022-12-18T03:38:34;2.80;58.60
43991;DHT22;29654;50.784;20.604;2022-12-18T03:43:46;2.80;58.60
43991;DHT22;29654;50.784;20.604;2022-12-18T03:48:55;2.80;58.70
43991;DHT22;29654;50.784;20.604;2022-12-18T03:54:03;2.70;58.70
43991;DHT22;29654;50.784;20.604;2022-12-18T03:59:15;2.70;58.80
43991;DHT22;29654;50.784;20.604;2022-12-18T04:04:19;2.70;58.70
43991;DHT22;29654;50.784;20.604;2022-12-18T04:09:23;2.60;58.80
43991;DHT22;29654;50.784;20.604;2022-12-18T04:14:28;2.60;58.80
43991;DHT22;29654;50.784;20.604;2022-12-18T04:19:37;2.60;58.90
43991;DHT22;29654;50.784;20.604;2022-12-18T04:24:42;2.60;58.90
43991;DHT22;29654;50.784;20.604;2022-12-18T04:29:57;2.60;59.00
43991;DHT22;29654;50.784;20.604;2022-12-18T04:35:00;2.60;59.00
43991;DHT22;29654;50.784;20.604;2022-12-18T04:40:07;2.50;59.00
43991;DHT22;29654;50.784;20.604;2022-12-18T04:45:17;2.50;59.00
43991;DHT22;29654;50.784;20.604;2022-12-18T04:50:20;2.60;59.10
43991;DHT22;29654;50.784;20.604;2022-12-18T04:55:26;2.60;59.10
43991;DHT22;29654;50.784;20.604;2022-12-18T05:00:30;2.60;59.10
43991;DHT22;29654;50.784;20.604;2022-12-18T05:05:35;2.50;59.10
43991;DHT22;29654;50.784;20.604;2022-12-18T05:10:37;2.50;59.10
43991;DHT22;29654;50.784;20.604;2022-12-18T05:15:41;2.50;59.20
43991;DHT22;29654;50.784;20.604;2022-12-18T05:20:44;2.60;59.30
43991;DHT22;29654;50.784;20.604;2022-12-18T05:25:50;2.60;59.20
43991;DHT22;29654;50.784;20.604;2022-12-18T05:30:56;2.60;59.10
43991;DHT22;29654;50.784;20.604;2022-12-18T05:36:02;2.60;59.00
43991;DHT22;29654;50.784;20.604;2022-12-18T05:41:07;2.70;59.10
43991;DHT22;29654;50.784;20.604;2022-12-18T05:46:14;2.60;59.00
43991;DHT22;29654;50.784;20.604;2022-12-18T05:51:20;2.60;59.10
43991;DHT22;29654;50.784;20.604;2022-12-18T05:56:23;2.60;59.10
43991;DHT22;29654;50.784;20.604;2022-12-18T06:01:28;2.60;59.10
43991;DHT22;29654;50.784;20.604;2022-12-18T06:06:30;2.60;59.00
43991;DHT22;29654;50.784;20.604;2022-12-18T06:11:33;2.60;59.00
43991;DHT22;29654;50.784;20.604;2022-12-18T06:16:38;2.50;58.90
43991;DHT22;29654;50.784;20.604;2022-12-18T06:21:40;2.50;59.00
43991;DHT22;29654;50.784;20.604;2022-12-18T06:26:43;2.50;59.00
43991;DHT22;29654;50.784;20.604;2022-12-18T06:31:47;2.50;59.00
43991;DHT22;29654;50.784;20.604;2022-12-18T06:36:50;2.50;59.10
43991;DHT22;29654;50.784;20.604;2022-12-18T06:41:52;2.50;59.00
43991;DHT22;29654;50.784;20.604;2022-12-18T06:46:57;2.50;59.00
43991;DHT22;29654;50.784;20.604;2022-12-18T06:51:59;2.50;59.00
43991;DHT22;29654;50.784;20.604;2022-12-18T06:57:02;2.50;58.90
43991;DHT22;29654;50.784;20.604;2022-12-18T07:02:09;2.60;59.00
43991;DHT22;29654;50.784;20.604;2022-12-18T07:07:13;2.60;58.90
43991;DHT22;29654;50.784;20.604;2022-12-18T07:12:16;2.60;59.00
43991;DHT22;29654;50.784;20.604;2022-12-18T07:17:20;2.60;59.00
43991;DHT22;29654;50.784;20.604;2022-12-18T07:22:23;2.60;58.90
43991;DHT22;29654;50.784;20.604;2022-12-18T07:27:27;2.60;59.00
43991;DHT22;29654;50.784;20.604;2022-12-18T07:32:31;2.60;59.00
43991;DHT22;29654;50.784;20.604;2022-12-18T07:37:35;2.60;58.90
43991;DHT22;29654;50.784;20.604;2022-12-18T07:42:37;2.60;58.90
43991;DHT22;29654;50.784;20.604;2022-12-18T07:47:42;2.60;58.90
43991;DHT22;29654;50.784;20.604;2022-12-18T07:52:44;2.60;59.00
43991;DHT22;29654;50.784;20.604;2022-12-18T07:57:47;2.70;59.10
43991;DHT22;29654;50.784;20.604;2022-12-18T08:02:51;2.80;59.10
43991;DHT22;29654;50.784;20.604;2022-12-18T08:07:54;2.80;59.00
43991;DHT22;29654;50.784;20.604;2022-12-18T08:12:57;2.90;58.90
43991;DHT22;29654;50.784;20.604;2022-12-18T08:18:01;3.00;58.90
43991;DHT22;29654;50.784;20.604;2022-12-18T08:23:04;3.00;58.80
43991;DHT22;29654;50.784;20.604;2022-12-18T08:28:06;3.10;58.90
43991;DHT22;29654;50.784;20.604;2022-12-18T08:33:11;3.10;59.00
43991;DHT22;29654;50.784;20.604;2022-12-18T08:38:13;3.20;58.80
43991;DHT22;29654;50.784;20.604;2022-12-18T08:43:16;3.30;58.80
43991;DHT22;29654;50.784;20.604;2022-12-18T08:48:37;3.30;58.80
43991;DHT22;29654;50.784;20.604;2022-12-18T08:53:40;3.40;58.80
43991;DHT22;29654;50.784;20.604;2022-12-18T08:58:43;3.50;58.80
43991;DHT22;29654;50.784;20.604;2022-12-18T09:03:47;3.60;58.70
43991;DHT22;29654;50.784;20.604;2022-12-18T09:08:50;3.60;58.80
43991;DHT22;29654;50.784;20.604;2022-12-18T09:13:53;3.70;58.70
43991;DHT22;29654;50.784;20.604;2022-12-18T09:18:58;3.80;58.50
43991;DHT22;29654;50.784;20.604;2022-12-18T09:24:01;3.90;58.40
43991;DHT22;29654;50.784;20.604;2022-12-18T09:29:05;4.00;58.40
43991;DHT22;29654;50.784;20.604;2022-12-18T09:34:09;4.10;58.40
43991;DHT22;29654;50.784;20.604;2022-12-18T09:39:12;4.10;58.30
43991;DHT22;29654;50.784;20.604;2022-12-18T09:44:23;4.20;58.30
43991;DHT22;29654;50.784;20.604;2022-12-18T09:49:30;4.30;58.20
43991;DHT22;29654;50.784;20.604;2022-12-18T09:54:39;4.30;58.20
43991;DHT22;29654;50.784;20.604;2022-12-18T09:59:46;4.40;58.30
43991;DHT22;29654;50.784;20.604;2022-12-18T10:05:04;4.60;58.30
43991;DHT22;29654;50.784;20.604;2022-12-18T10:10:39;4.70;58.00
43991;DHT22;29654;50.784;20.604;2022-12-18T10:15:56;4.80;57.80
43991;DHT22;29654;50.784;20.604;2022-12-18T10:21:09;4.90;57.60
43991;DHT22;29654;50.784;20.604;2022-12-18T10:26:14;4.90;57.50
43991;DHT22;29654;50.784;20.604;2022-12-18T10:31:18;4.90;57.70
43991;DHT22;29654;50.784;20.604;2022-12-18T10:36:25;5.00;57.70
43991;DHT22;29654;50.784;20.604;2022-12-18T10:41:27;5.00;57.70
43991;DHT22;29654;50.784;20.604;2022-12-18T10:46:32;5.10;57.70
43991;DHT22;29654;50.784;20.604;2022-12-18T10:51:37;5.20;57.40
43991;DHT22;29654;50.784;20.604;2022-12-18T10:56:40;5.20;56.90
43991;DHT22;29654;50.784;20.604;2022-12-18T11:01:49;5.10;56.90
43991;DHT22;29654;50.784;20.604;2022-12-18T11:07:03;5.10;56.80
43991;DHT22;29654;50.784;20.604;2022-12-18T11:12:16;5.00;56.90
43991;DHT22;29654;50.784;20.604;2022-12-18T11:17:25;5.00;57.10
43991;DHT22;29654;50.784;20.604;2022-12-18T11:22:34;5.10;57.20
43991;DHT22;29654;50.784;20.604;2022-12-18T11:27:39;5.10;57.00
43991;DHT22;29654;50.784;20.604;2022-12-18T11:32:44;5.10;57.10
43991;DHT22;29654;50.784;20.604;2022-12-18T11:37:54;5.20;57.10
43991;DHT22;29654;50.784;20.604;2022-12-18T11:43:04;5.20;56.80
43991;DHT22;29654;50.784;20.604;2022-12-18T11:48:16;5.20;56.80
43991;DHT22;29654;50.784;20.604;2022-12-18T11:53:24;5.20;56.70
43991;DHT22;29654;50.784;20.604;2022-12-18T12:04:25;5.20;56.50
43991;DHT22;29654;50.784;20.604;2022-12-18T12:09:40;5.20;56.30
43991;DHT22;29654;50.784;20.604;2022-12-18T12:14:56;5.20;56.60
43991;DHT22;29654;50.784;20.604;2022-12-18T12:20:10;5.20;56.40
43991;DHT22;29654;50.784;20.604;2022-12-18T12:25:29;5.20;56.40
43991;DHT22;29654;50.784;20.604;2022-12-18T12:30:41;5.30;56.40
43991;DHT22;29654;50.784;20.604;2022-12-18T12:35:52;5.20;56.40
43991;DHT22;29654;50.784;20.604;2022-12-18T12:41:05;5.20;56.40
43991;DHT22;29654;50.784;20.604;2022-12-18T12:46:32;5.20;56.30
43991;DHT22;29654;50.784;20.604;2022-12-18T12:51:39;5.20;56.30
43991;DHT22;29654;50.784;20.604;2022-12-18T12:56:53;5.10;56.70
43991;DHT22;29654;50.784;20.604;2022-12-18T13:02:06;5.10;56.10
43991;DHT22;29654;50.784;20.604;2022-12-18T13:07:20;5.10;56.20
43991;DHT22;29654;50.784;20.604;2022-12-18T13:12:30;5.10;56.30
43991;DHT22;29654;50.784;20.604;2022-12-18T13:18:13;5.00;56.00
43991;DHT22;29654;50.784;20.604;2022-12-18T13:23:29;5.00;56.00
43991;DHT22;29654;50.784;20.604;2022-12-18T13:28:54;4.90;55.60
43991;DHT22;29654;50.784;20.604;2022-12-18T13:34:15;4.90;55.50
43991;DHT22;29654;50.784;20.604;2022-12-18T13:39:24;4.70;55.50
43991;DHT22;29654;50.784;20.604;2022-12-18T13:44:36;4.70;55.90
43991;DHT22;29654;50.784;20.604;2022-12-18T13:49:43;4.60;55.80
43991;DHT22;29654;50.784;20.604;2022-12-18T13:54:49;4.60;55.80
43991;DHT22;29654;50.784;20.604;2022-12-18T13:59:55;4.50;55.80
43991;DHT22;29654;50.784;20.604;2022-12-18T14:04:58;4.40;55.90
43991;DHT22;29654;50.784;20.604;2022-12-18T14:10:01;4.30;56.00
43991;DHT22;29654;50.784;20.604;2022-12-18T14:15:20;4.30;56.00
43991;DHT22;29654;50.784;20.604;2022-12-18T14:20:28;4.30;56.00
43991;DHT22;29654;50.784;20.604;2022-12-18T14:25:33;4.20;56.20
43991;DHT22;29654;50.784;20.604;2022-12-18T14:30:38;4.20;56.10
43991;DHT22;29654;50.784;20.604;2022-12-18T14:35:51;4.20;56.00
43991;DHT22;29654;50.784;20.604;2022-12-18T14:40:57;4.10;56.00
43991;DHT22;29654;50.784;20.604;2022-12-18T14:46:04;4.10;56.10
43991;DHT22;29654;50.784;20.604;2022-12-18T14:51:15;4.10;56.20
43991;DHT22;29654;50.784;20.604;2022-12-18T14:56:21;4.00;56.10
43991;DHT22;29654;50.784;20.604;2022-12-18T15:01:29;4.00;56.30
43991;DHT22;29654;50.784;20.604;2022-12-18T15:06:35;3.90;56.20
43991;DHT22;29654;50.784;20.604;2022-12-18T15:11:45;4.00;56.20
43991;DHT22;29654;50.784;20.604;2022-12-18T15:16:52;3.90;55.80
43991;DHT22;29654;50.784;20.604;2022-12-18T15:21:55;3.80;55.90
43991;DHT22;29654;50.784;20.604;2022-12-18T15:26:58;3.80;56.20
43991;DHT22;29654;50.784;20.604;2022-12-18T15:32:04;3.70;56.30
43991;DHT22;29654;50.784;20.604;2022-12-18T15:37:08;3.70;56.30
43991;DHT22;29654;50.784;20.604;2022-12-18T15:42:13;3.70;56.40
43991;DHT22;29654;50.784;20.604;2022-12-18T15:47:35;3.70;56.40
43991;DHT22;29654;50.784;20.604;2022-12-18T15:52:40;3.70;56.40
43991;DHT22;29654;50.784;20.604;2022-12-18T15:57:44;3.70;56.40
43991;DHT22;29654;50.784;20.604;2022-12-18T16:02:48;3.70;56.50
43991;DHT22;29654;50.784;20.604;2022-12-18T16:07:51;3.70;56.50
43991;DHT22;29654;50.784;20.604;2022-12-18T16:12:54;3.70;56.50
43991;DHT22;29654;50.784;20.604;2022-12-18T16:17:58;3.70;56.50
43991;DHT22;29654;50.784;20.604;2022-12-18T16:23:01;3.70;56.50
43991;DHT22;29654;50.784;20.604;2022-12-18T16:28:03;3.70;56.50
43991;DHT22;29654;50.784;20.604;2022-12-18T16:33:08;3.70;56.50
43991;DHT22;29654;50.784;20.604;2022-12-18T16:38:12;3.70;56.50
43991;DHT22;29654;50.784;20.604;2022-12-18T16:43:14;3.70;56.50
43991;DHT22;29654;50.784;20.604;2022-12-18T16:48:18;3.70;56.50
43991;DHT22;29654;50.784;20.604;2022-12-18T16:53:21;3.70;56.50
43991;DHT22;29654;50.784;20.604;2022-12-18T16:58:24;3.70;56.50
43991;DHT22;29654;50.784;20.604;2022-12-18T17:03:28;3.70;56.50
43991;DHT22;29654;50.784;20.604;2022-12-18T17:08:31;3.70;56.50
43991;DHT22;29654;50.784;20.604;2022-12-18T17:13:34;3.70;56.50
43991;DHT22;29654;50.784;20.604;2022-12-18T17:18:38;3.70;56.50
43991;DHT22;29654;50.784;20.604;2022-12-18T17:23:41;3.70;56.50
43991;DHT22;29654;50.784;20.604;2022-12-18T17:28:44;3.70;56.50
43991;DHT22;29654;50.784;20.604;2022-12-18T17:33:48;3.70;56.60
43991;DHT22;29654;50.784;20.604;2022-12-18T17:38:52;3.70;56.60
43991;DHT22;29654;50.784;20.604;2022-12-18T17:43:58;3.70;56.50
43991;DHT22;29654;50.784;20.604;2022-12-18T17:49:03;3.70;56.40
43991;DHT22;29654;50.784;20.604;2022-12-18T17:54:06;3.70;56.40
43991;DHT22;29654;50.784;20.604;2022-12-18T17:59:09;3.70;56.50
43991;DHT22;29654;50.784;20.604;2022-12-18T18:04:13;3.60;56.30
43991;DHT22;29654;50.784;20.604;2022-12-18T18:09:16;3.60;56.30
43991;DHT22;29654;50.784;20.604;2022-12-18T18:14:20;3.50;56.30
43991;DHT22;29654;50.784;20.604;2022-12-18T18:19:24;3.50;56.20
43991;DHT22;29654;50.784;20.604;2022-12-18T18:24:26;3.40;56.20
43991;DHT22;29654;50.784;20.604;2022-12-18T18:29:29;3.30;56.20
43991;DHT22;29654;50.784;20.604;2022-12-18T18:34:33;3.30;56.40
43991;DHT22;29654;50.784;20.604;2022-12-18T18:39:36;3.30;56.40
43991;DHT22;29654;50.784;20.604;2022-12-18T18:44:39;3.20;56.30
43991;DHT22;29654;50.784;20.604;2022-12-18T18:49:43;3.20;56.40
43991;DHT22;29654;50.784;20.604;2022-12-18T18:54:46;3.10;56.40
43991;DHT22;29654;50.784;20.604;2022-12-18T18:59:50;3.10;56.30
43991;DHT22;29654;50.784;20.604;2022-12-18T19:04:54;3.10;56.40
43991;DHT22;29654;50.784;20.604;2022-12-18T19:09:58;3.00;56.40
43991;DHT22;29654;50.784;20.604;2022-12-18T19:15:00;3.00;56.40
43991;DHT22;29654;50.784;20.604;2022-12-18T19:20:05;3.00;56.40
43991;DHT22;29654;50.784;20.604;2022-12-18T19:25:10;3.00;56.40
43991;DHT22;29654;50.784;20.604;2022-12-18T19:30:12;3.00;56.40
43991;DHT22;29654;50.784;20.604;2022-12-18T19:35:17;2.90;56.50
43991;DHT22;29654;50.784;20.604;2022-12-18T19:40:20;3.00;56.90
43991;DHT22;29654;50.784;20.604;2022-12-18T19:45:22;3.00;56.70
43991;DHT22;29654;50.784;20.604;2022-12-18T19:50:27;3.00;56.40
43991;DHT22;29654;50.784;20.604;2022-12-18T19:55:29;3.00;56.30
43991;DHT22;29654;50.784;20.604;2022-12-18T20:00:32;2.90;56.20
43991;DHT22;29654;50.784;20.604;2022-12-18T20:05:36;2.80;56.10
43991;DHT22;29654;50.784;20.604;2022-12-18T20:10:39;2.80;56.10
43991;DHT22;29654;50.784;20.604;2022-12-18T20:15:44;2.70;56.10
43991;DHT22;29654;50.784;20.604;2022-12-18T20:20:48;2.60;56.10
43991;DHT22;29654;50.784;20.604;2022-12-18T20:25:52;2.60;56.20
43991;DHT22;29654;50.784;20.604;2022-12-18T20:30:58;2.50;56.20
43991;DHT22;29654;50.784;20.604;2022-12-18T20:36:04;2.40;56.20
43991;DHT22;29654;50.784;20.604;2022-12-18T20:41:08;2.40;56.40
43991;DHT22;29654;50.784;20.604;2022-12-18T20:46:13;2.40;56.50
43991;DHT22;29654;50.784;20.604;2022-12-18T20:51:21;2.40;56.50
43991;DHT22;29654;50.784;20.604;2022-12-18T20:56:27;2.40;56.20
43991;DHT22;29654;50.784;20.604;2022-12-18T21:01:31;2.30;56.40
43991;DHT22;29654;50.784;20.604;2022-12-18T21:06:35;2.30;56.40
43991;DHT22;29654;50.784;20.604;2022-12-18T21:11:38;2.20;56.30
43991;DHT22;29654;50.784;20.604;2022-12-18T21:16:58;2.10;56.30
43991;DHT22;29654;50.784;20.604;2022-12-18T21:22:03;2.10;56.30
43991;DHT22;29654;50.784;20.604;2022-12-18T21:27:06;2.10;56.30
43991;DHT22;29654;50.784;20.604;2022-12-18T21:32:09;2.00;56.30
43991;DHT22;29654;50.784;20.604;2022-12-18T21:37:15;1.90;56.20
43991;DHT22;29654;50.784;20.604;2022-12-18T21:42:18;1.90;56.10
43991;DHT22;29654;50.784;20.604;2022-12-18T21:47:38;1.80;56.10
43991;DHT22;29654;50.784;20.604;2022-12-18T21:52:42;1.70;56.20
43991;DHT22;29654;50.784;20.604;2022-12-18T21:57:45;1.60;56.20
43991;DHT22;29654;50.784;20.604;2022-12-18T22:02:48;1.60;56.40
43991;DHT22;29654;50.784;20.604;2022-12-18T22:07:52;1.50;56.40
43991;DHT22;29654;50.784;20.604;2022-12-18T22:12:54;1.50;56.40
43991;DHT22;29654;50.784;20.604;2022-12-18T22:17:57;1.50;56.30
43991;DHT22;29654;50.784;20.604;2022-12-18T22:23:01;1.40;56.20
43991;DHT22;29654;50.784;20.604;2022-12-18T22:28:04;1.30;56.10
43991;DHT22;29654;50.784;20.604;2022-12-18T22:33:24;1.30;56.20
43991;DHT22;29654;50.784;20.604;2022-12-18T22:38:29;1.10;56.20
43991;DHT22;29654;50.784;20.604;2022-12-18T22:43:31;1.10;56.20
43991;DHT22;29654;50.784;20.604;2022-12-18T22:48:34;1.00;56.50
43991;DHT22;29654;50.784;20.604;2022-12-18T22:53:38;1.00;56.30
43991;DHT22;29654;50.784;20.604;2022-12-18T22:58:41;0.90;56.30
43991;DHT22;29654;50.784;20.604;2022-12-18T23:03:44;0.90;56.30
43991;DHT22;29654;50.784;20.604;2022-12-18T23:08:48;0.80;56.30
43991;DHT22;29654;50.784;20.604;2022-12-18T23:13:51;0.80;56.40
43991;DHT22;29654;50.784;20.604;2022-12-18T23:18:56;0.80;56.50
43991;DHT22;29654;50.784;20.604;2022-12-18T23:24:00;0.70;56.50
43991;DHT22;29654;50.784;20.604;2022-12-18T23:29:03;0.80;56.60
43991;DHT22;29654;50.784;20.604;2022-12-18T23:34:06;0.70;56.50
43991;DHT22;29654;50.784;20.604;2022-12-18T23:39:11;0.70;56.50
43991;DHT22;29654;50.784;20.604;2022-12-18T23:44:14;0.60;56.50
43991;DHT22;29654;50.784;20.604;2022-12-18T23:49:17;0.60;56.60
43991;DHT22;29654;50.784;20.604;2022-12-18T23:54:21;0.50;56.60
43991;DHT22;29654;50.784;20.604;2022-12-18T23:59:24;0.40;56.50
